Time;durP1;ratioP1;P1;durP2;ratioP2;P2;SDS_P1;SDS_P2;PMS_P1;PMS_P2;Temp;Humidity;BMP_temperature;BMP_pressure;BME280_temperature;BME280_humidity;BME280_pressure;Samples;Min_cycle;Max_cycle;Signal;HPM_P1;HPM_P2
2021/07/08 00:01:37;;;;;;;5.70;3.08;;;18.90;77.30;;;;;;5059664;28;20481;-78
2021/07/08 00:04:03;;;;;;;5.18;2.97;;;18.90;77.40;;;;;;5056509;28;20025;-78
2021/07/08 00:06:28;;;;;;;6.30;3.10;;;18.80;77.40;;;;;;5073705;28;20039;-78
2021/07/08 00:08:54;;;;;;;5.75;3.20;;;18.80;77.60;;;;;;5056746;28;20056;-79
2021/07/08 00:11:19;;;;;;;7.50;2.90;;;18.80;77.80;;;;;;5068081;28;20039;-78
2021/07/08 00:13:47;;;;;;;6.68;2.88;;;18.80;77.90;;;;;;5065090;28;20025;-78
2021/07/08 00:16:13;;;;;;;7.78;3.63;;;18.80;78.00;;;;;;5076626;28;20539;-79
2021/07/08 00:18:38;;;;;;;5.13;2.90;;;18.80;78.10;;;;;;5072401;28;20028;-79
2021/07/08 00:21:04;;;;;;;6.78;3.28;;;18.80;78.30;;;;;;5070451;28;20025;-78
2021/07/08 00:23:30;;;;;;;5.28;3.25;;;18.80;78.30;;;;;;5079598;28;20075;-79
2021/07/08 00:25:56;;;;;;;7.20;3.40;;;18.80;78.40;;;;;;5076357;28;20029;-79
2021/07/08 00:28:22;;;;;;;7.72;3.33;;;18.80;78.40;;;;;;5076631;28;20039;-78
2021/07/08 00:30:50;;;;;;;4.95;3.00;;;18.80;78.40;;;;;;5073229;28;20482;-79
2021/07/08 00:33:17;;;;;;;7.63;3.50;;;18.80;78.70;;;;;;5067205;28;20036;-78
2021/07/08 00:35:43;;;;;;;8.30;3.35;;;18.80;78.70;;;;;;5066994;28;20064;-79
2021/07/08 00:38:09;;;;;;;7.90;3.42;;;18.80;78.90;;;;;;5084621;28;20052;-78
2021/07/08 00:40:35;;;;;;;12.15;3.80;;;18.80;79.20;;;;;;5073600;28;20119;-79
2021/07/08 00:43:01;;;;;;;6.70;3.45;;;18.80;79.30;;;;;;5083227;28;20353;-78
2021/07/08 00:45:27;;;;;;;7.13;3.53;;;18.80;79.40;;;;;;5082258;28;20039;-78
2021/07/08 00:47:53;;;;;;;7.00;3.13;;;18.80;79.40;;;;;;5082449;28;20032;-78
2021/07/08 00:50:33;;;;;;;5.35;3.40;;;18.80;79.60;;;;;;5059002;28;20032;-78
2021/07/08 00:52:58;;;;;;;4.32;3.17;;;18.80;79.80;;;;;;5072846;28;20128;-78
2021/07/08 00:55:25;;;;;;;6.50;3.33;;;18.80;79.70;;;;;;5073161;28;20550;-78
2021/07/08 00:57:54;;;;;;;6.38;2.83;;;18.80;79.80;;;;;;5075830;28;20044;-78
2021/07/08 01:00:26;;;;;;;9.90;3.38;;;18.80;79.80;;;;;;5077326;28;20025;-78
2021/07/08 01:02:54;;;;;;;6.05;3.28;;;18.80;79.90;;;;;;5096449;28;20031;-78
2021/07/08 01:05:21;;;;;;;3.97;3.28;;;18.70;80.00;;;;;;5086549;28;20048;-78
2021/07/08 01:07:47;;;;;;;4.82;3.35;;;18.70;80.00;;;;;;5055715;28;20041;-78
2021/07/08 01:10:15;;;;;;;8.07;3.70;;;18.70;80.00;;;;;;5068738;28;20477;-78
2021/07/08 01:12:41;;;;;;;6.25;3.15;;;18.70;80.00;;;;;;5071979;28;20028;-79
2021/07/08 01:15:09;;;;;;;7.28;3.50;;;18.70;80.10;;;;;;5080387;28;20064;-78
2021/07/08 01:17:35;;;;;;;6.60;3.85;;;18.70;80.30;;;;;;5069200;28;20091;-79
2021/07/08 01:20:01;;;;;;;6.22;3.65;;;18.60;80.30;;;;;;5081793;28;20059;-79
2021/07/08 01:22:26;;;;;;;5.93;3.38;;;18.50;80.50;;;;;;5055831;28;20025;-78
2021/07/08 01:24:53;;;;;;;5.05;3.63;;;18.50;80.60;;;;;;5056607;28;20037;-78
2021/07/08 01:27:19;;;;;;;8.73;3.92;;;18.40;80.70;;;;;;5056248;28;20071;-78
2021/07/08 01:29:45;;;;;;;12.05;3.88;;;18.40;80.90;;;;;;5070534;28;20060;-78
2021/07/08 01:32:10;;;;;;;5.80;4.10;;;18.40;81.10;;;;;;5089619;28;20032;-79
2021/07/08 01:34:36;;;;;;;9.57;4.57;;;18.40;81.30;;;;;;5074702;28;20385;-78
2021/07/08 01:37:02;;;;;;;9.88;3.85;;;18.40;81.20;;;;;;5074486;28;20045;-79
2021/07/08 01:39:28;;;;;;;5.13;3.38;;;18.40;81.90;;;;;;5074961;28;20477;-79
2021/07/08 01:41:54;;;;;;;6.38;3.58;;;18.40;81.40;;;;;;5075762;28;20038;-79
2021/07/08 01:44:19;;;;;;;7.15;4.20;;;18.40;81.50;;;;;;5079095;28;20029;-78
2021/07/08 01:46:45;;;;;;;6.72;3.85;;;18.30;81.50;;;;;;5067203;28;20116;-79
2021/07/08 01:49:11;;;;;;;8.23;4.07;;;18.30;81.70;;;;;;5070668;28;20047;-79
2021/07/08 01:51:37;;;;;;;8.10;3.85;;;18.30;82.00;;;;;;5076649;28;20490;-78
2021/07/08 01:54:07;;;;;;;5.20;3.20;;;18.30;82.00;;;;;;5074775;28;20021;-78
2021/07/08 01:56:33;;;;;;;8.30;3.85;;;18.40;82.10;;;;;;5072951;28;20510;-78
2021/07/08 01:58:59;;;;;;;6.78;4.30;;;18.40;82.10;;;;;;5065534;28;20025;-78
2021/07/08 02:01:25;;;;;;;7.63;4.07;;;18.30;82.10;;;;;;5054976;28;20385;-78
2021/07/08 02:03:51;;;;;;;4.05;3.38;;;18.30;82.10;;;;;;5074717;28;20035;-79
2021/07/08 02:06:17;;;;;;;5.93;3.50;;;18.30;82.20;;;;;;5087932;28;20462;-78
2021/07/08 02:08:44;;;;;;;8.20;3.80;;;18.30;82.30;;;;;;5062370;28;20029;-78
2021/07/08 02:11:11;;;;;;;5.07;3.60;;;18.30;82.30;;;;;;5070894;28;20033;-79
2021/07/08 02:13:38;;;;;;;5.45;3.67;;;18.30;82.40;;;;;;5080038;28;20092;-79
2021/07/08 02:16:06;;;;;;;7.60;3.88;;;18.30;82.40;;;;;;5084922;28;20514;-78
2021/07/08 02:18:33;;;;;;;5.90;3.80;;;18.30;82.50;;;;;;5073277;28;20109;-78
2021/07/08 02:20:59;;;;;;;8.25;3.85;;;18.20;82.40;;;;;;5072917;28;20285;-78
2021/07/08 02:23:24;;;;;;;6.03;3.85;;;18.20;82.60;;;;;;5071061;28;20032;-78
2021/07/08 02:25:50;;;;;;;4.18;3.50;;;18.20;82.60;;;;;;5054837;28;20401;-79
2021/07/08 02:28:16;;;;;;;6.80;3.72;;;18.10;82.60;;;;;;5064244;28;20025;-78
2021/07/08 02:30:42;;;;;;;7.35;3.75;;;18.10;82.70;;;;;;5070011;28;20029;-79
2021/07/08 02:33:08;;;;;;;5.55;3.60;;;18.10;82.80;;;;;;5069410;28;20540;-79
2021/07/08 02:35:35;;;;;;;10.55;3.90;;;18.00;82.80;;;;;;5056229;28;20452;-79
2021/07/08 02:38:01;;;;;;;5.15;3.65;;;18.00;82.80;;;;;;5086558;28;20034;-78
2021/07/08 02:40:29;;;;;;;5.70;3.60;;;17.90;82.80;;;;;;5091356;28;20037;-78
2021/07/08 02:42:56;;;;;;;4.45;3.60;;;17.90;82.90;;;;;;5072074;28;20028;-79
2021/07/08 02:45:24;;;;;;;7.88;3.88;;;17.90;82.90;;;;;;5072781;28;20078;-79
2021/07/08 02:47:50;;;;;;;6.83;4.10;;;17.80;83.00;;;;;;5071828;28;20025;-79
2021/07/08 02:50:17;;;;;;;6.75;3.67;;;17.80;83.10;;;;;;5066792;28;20031;-79
2021/07/08 02:52:44;;;;;;;9.45;4.10;;;17.70;83.10;;;;;;5073596;28;20021;-78
2021/07/08 02:55:10;;;;;;;8.02;4.32;;;17.70;83.10;;;;;;5072120;28;20047;-79
2021/07/08 02:57:38;;;;;;;7.22;3.50;;;17.70;83.20;;;;;;5061433;28;20107;-78
2021/07/08 03:00:09;;;;;;;10.82;4.40;;;17.60;83.30;;;;;;5073137;28;20027;-78
2021/07/08 03:02:35;;;;;;;6.05;3.85;;;17.60;83.30;;;;;;5082667;28;20389;-79
2021/07/08 03:05:02;;;;;;;7.07;3.75;;;17.50;83.30;;;;;;5073892;28;20025;-78
2021/07/08 03:07:28;;;;;;;8.15;4.05;;;17.50;83.50;;;;;;5065837;28;20381;-79
2021/07/08 03:09:54;;;;;;;8.60;4.45;;;17.50;83.60;;;;;;5061240;28;20028;-79
2021/07/08 03:12:19;;;;;;;7.00;4.53;;;17.40;83.70;;;;;;5070705;28;20033;-78
2021/07/08 03:14:45;;;;;;;8.35;4.43;;;17.40;83.80;;;;;;5085944;28;20048;-78
2021/07/08 03:17:10;;;;;;;9.98;4.75;;;17.40;83.90;;;;;;5075248;28;20062;-79
2021/07/08 03:19:36;;;;;;;8.18;4.50;;;17.30;83.90;;;;;;5067406;28;20420;-78
2021/07/08 03:22:02;;;;;;;7.45;4.20;;;17.30;84.00;;;;;;5072721;28;20028;-78
2021/07/08 03:24:28;;;;;;;6.53;4.68;;;17.30;84.00;;;;;;5055685;28;20120;-78
2021/07/08 03:26:54;;;;;;;8.75;4.72;;;17.30;84.00;;;;;;5065556;28;20063;-78
2021/07/08 03:29:20;;;;;;;11.40;4.50;;;17.20;84.00;;;;;;5073307;28;20043;-78
2021/07/08 03:31:45;;;;;;;8.27;4.38;;;17.20;84.10;;;;;;5053471;28;20033;-78
2021/07/08 03:34:11;;;;;;;8.15;4.40;;;17.20;84.10;;;;;;5052050;28;20497;-78
2021/07/08 03:36:37;;;;;;;6.90;4.70;;;17.20;84.30;;;;;;5078576;28;20020;-78
2021/07/08 03:39:04;;;;;;;7.70;4.35;;;17.20;84.30;;;;;;5092287;28;20039;-78
2021/07/08 03:41:30;;;;;;;6.18;4.25;;;17.20;84.40;;;;;;5086882;28;20358;-78
2021/07/08 03:43:55;;;;;;;8.27;4.93;;;17.20;84.50;;;;;;5066119;28;20147;-78
2021/07/08 03:46:21;;;;;;;8.68;4.55;;;17.20;84.40;;;;;;5075620;28;20014;-78
2021/07/08 03:48:46;;;;;;;7.97;4.28;;;17.20;84.50;;;;;;5073589;28;20454;-78
2021/07/08 03:51:12;;;;;;;6.80;4.50;;;17.20;84.60;;;;;;5063093;28;20032;-78
2021/07/08 03:53:38;;;;;;;7.72;4.68;;;17.20;84.60;;;;;;5077117;28;20043;-78
2021/07/08 03:56:03;;;;;;;9.70;4.45;;;17.20;84.60;;;;;;5075137;28;20063;-79
2021/07/08 03:58:29;;;;;;;10.73;5.45;;;17.20;84.60;;;;;;5059987;28;20040;-78
2021/07/08 04:00:55;;;;;;;13.23;5.70;;;17.10;84.60;;;;;;5060964;28;20029;-78
2021/07/08 04:03:20;;;;;;;8.18;5.63;;;17.10;84.70;;;;;;5075553;28;20387;-79
2021/07/08 04:05:47;;;;;;;7.63;5.03;;;17.10;84.70;;;;;;5076753;28;20492;-78
2021/07/08 04:08:14;;;;;;;6.35;5.03;;;17.10;84.80;;;;;;5075755;28;20044;-78
2021/07/08 04:10:40;;;;;;;8.68;5.03;;;17.00;84.70;;;;;;5073085;28;20029;-78
2021/07/08 04:13:10;;;;;;;9.00;5.15;;;17.00;84.80;;;;;;5086873;28;20040;-78
2021/07/08 04:15:36;;;;;;;12.25;5.00;;;17.00;85.10;;;;;;5059723;28;20119;-78
2021/07/08 04:18:03;;;;;;;7.28;4.93;;;16.90;85.00;;;;;;5062613;28;20066;-79
2021/07/08 04:20:29;;;;;;;9.27;5.55;;;16.90;85.10;;;;;;5076615;28;20105;-78
2021/07/08 04:22:55;;;;;;;12.98;5.28;;;17.00;85.30;;;;;;5055760;28;20055;-78
2021/07/08 04:25:22;;;;;;;10.30;4.88;;;17.00;85.30;;;;;;5073457;28;20036;-78
2021/07/08 04:27:48;;;;;;;11.77;5.15;;;17.00;85.40;;;;;;5044401;28;20066;-78
2021/07/08 04:30:18;;;;;;;8.82;4.90;;;17.10;85.60;;;;;;5059857;28;20035;-79
2021/07/08 04:32:43;;;;;;;6.45;4.68;;;17.10;85.50;;;;;;5057113;28;20024;-78
2021/07/08 04:35:10;;;;;;;13.90;5.65;;;17.20;85.40;;;;;;5056419;28;20017;-78
2021/07/08 04:37:41;;;;;;;16.88;5.63;;;17.20;85.40;;;;;;5056693;28;20024;-78
2021/07/08 04:40:12;;;;;;;8.60;5.00;;;17.30;85.50;;;;;;5082503;28;20031;-78
2021/07/08 04:42:39;;;;;;;7.88;4.68;;;17.30;85.50;;;;;;5070103;28;20453;-78
2021/07/08 04:45:07;;;;;;;9.75;5.32;;;17.40;85.40;;;;;;5076378;28;20455;-78
2021/07/08 04:47:33;;;;;;;7.53;5.10;;;17.40;85.20;;;;;;5079888;28;20031;-79
2021/07/08 04:49:59;;;;;;;5.63;4.57;;;17.40;85.00;;;;;;5062552;28;20060;-78
2021/07/08 04:52:25;;;;;;;6.63;4.90;;;17.50;84.80;;;;;;5054344;28;20033;-78
2021/07/08 04:54:50;;;;;;;9.10;4.88;;;17.60;84.70;;;;;;5073726;28;20074;-79
2021/07/08 04:57:18;;;;;;;8.18;5.15;;;17.60;84.60;;;;;;5075877;28;20052;-78
2021/07/08 04:59:44;;;;;;;12.68;5.32;;;17.70;84.60;;;;;;5074347;28;20413;-78
2021/07/08 05:02:09;;;;;;;10.45;5.20;;;17.70;84.50;;;;;;5075794;28;20029;-78
2021/07/08 05:04:35;;;;;;;9.52;5.10;;;17.70;84.60;;;;;;5074376;28;20032;-78
2021/07/08 05:07:00;;;;;;;10.70;5.38;;;17.70;84.50;;;;;;5075927;28;20390;-78
2021/07/08 05:09:26;;;;;;;12.98;5.20;;;17.70;84.40;;;;;;5064090;28;20037;-78
2021/07/08 05:11:52;;;;;;;7.80;4.32;;;17.80;84.50;;;;;;5063185;28;20036;-78
2021/07/08 05:14:17;;;;;;;11.15;4.88;;;17.80;84.40;;;;;;5089610;28;20401;-79
2021/07/08 05:16:43;;;;;;;7.00;5.22;;;17.80;84.30;;;;;;5075603;28;20101;-79
2021/07/08 05:19:09;;;;;;;8.13;5.05;;;17.80;84.30;;;;;;5087414;28;20028;-78
2021/07/08 05:21:39;;;;;;;8.73;5.45;;;17.80;84.30;;;;;;5080562;28;20029;-79
2021/07/08 05:24:04;;;;;;;8.57;5.00;;;17.90;84.30;;;;;;5064452;28;20028;-79
2021/07/08 05:26:30;;;;;;;13.90;5.47;;;17.90;84.40;;;;;;5055456;28;20112;-78
2021/07/08 05:28:55;;;;;;;8.38;5.07;;;17.90;84.50;;;;;;5072475;28;20052;-77
2021/07/08 05:31:21;;;;;;;14.00;5.63;;;17.90;84.40;;;;;;5057081;28;20025;-77
2021/07/08 05:33:47;;;;;;;8.65;5.15;;;17.90;84.60;;;;;;5070818;28;20436;-76
2021/07/08 05:36:13;;;;;;;11.07;5.80;;;17.90;84.60;;;;;;5077882;28;20127;-76
2021/07/08 05:38:38;;;;;;;8.23;5.07;;;17.90;84.60;;;;;;5073142;28;20029;-77
2021/07/08 05:41:04;;;;;;;8.35;5.50;;;17.90;84.70;;;;;;5055883;28;20136;-76
2021/07/08 05:43:29;;;;;;;10.38;5.60;;;18.00;84.50;;;;;;5055263;28;20036;-76
2021/07/08 05:45:55;;;;;;;10.00;5.75;;;18.00;84.30;;;;;;5057675;28;20045;-76
2021/07/08 05:48:21;;;;;;;8.55;5.63;;;18.00;84.10;;;;;;5059369;28;20123;-77
2021/07/08 05:50:46;;;;;;;7.80;5.70;;;18.00;84.00;;;;;;5063841;28;20025;-75
2021/07/08 05:53:12;;;;;;;11.02;5.38;;;18.10;84.00;;;;;;5079060;28;20144;-77
2021/07/08 05:55:38;;;;;;;13.93;5.70;;;18.10;83.90;;;;;;5064495;28;20083;-77
2021/07/08 05:58:03;;;;;;;8.73;5.40;;;18.20;83.70;;;;;;5087427;28;20058;-77
2021/07/08 06:00:29;;;;;;;13.90;5.57;;;18.20;83.50;;;;;;5078887;28;20079;-77
2021/07/08 06:02:55;;;;;;;10.05;5.43;;;18.30;83.50;;;;;;5064899;28;20028;-77
2021/07/08 06:05:20;;;;;;;9.23;5.75;;;18.40;83.30;;;;;;5064724;28;20036;-77
2021/07/08 06:07:46;;;;;;;9.63;5.68;;;18.40;83.30;;;;;;5066560;28;20032;-82
2021/07/08 06:10:12;;;;;;;10.77;6.13;;;18.50;84.00;;;;;;5090564;28;20036;-81
2021/07/08 06:12:42;;;;;;;10.77;5.72;;;18.60;83.30;;;;;;5095361;28;20020;-81
2021/07/08 06:15:08;;;;;;;14.50;5.57;;;18.70;82.70;;;;;;5094656;28;20424;-81
2021/07/08 06:17:34;;;;;;;8.10;5.55;;;18.70;82.50;;;;;;5092618;28;20032;-81
2021/07/08 06:20:01;;;;;;;11.20;5.75;;;18.80;82.60;;;;;;5093337;28;20024;-81
2021/07/08 06:22:26;;;;;;;7.05;5.75;;;18.80;82.40;;;;;;5093694;28;20031;-81
2021/07/08 06:24:52;;;;;;;7.78;5.78;;;19.00;82.40;;;;;;5094595;28;20028;-81
2021/07/08 06:27:17;;;;;;;14.55;5.63;;;19.10;82.80;;;;;;5094613;28;20036;-81
2021/07/08 06:29:43;;;;;;;8.55;6.28;;;19.20;82.00;;;;;;5074640;28;20032;-81
2021/07/08 06:32:09;;;;;;;12.82;6.72;;;19.20;81.30;;;;;;5074144;28;20116;-81
2021/07/08 06:34:35;;;;;;;10.88;6.55;;;19.30;81.30;;;;;;5072859;28;20560;-81
2021/07/08 06:37:01;;;;;;;9.05;5.93;;;19.30;81.10;;;;;;5074368;28;20029;-81
2021/07/08 06:39:26;;;;;;;10.82;5.82;;;19.40;81.10;;;;;;5074092;28;20432;-81
2021/07/08 06:41:52;;;;;;;5.90;5.22;;;19.50;81.10;;;;;;5074101;28;20032;-81
2021/07/08 06:44:17;;;;;;;13.65;6.25;;;19.60;81.00;;;;;;5072512;28;20029;-81
2021/07/08 06:46:50;;;;;;;10.93;6.15;;;19.70;80.70;;;;;;5073966;28;20106;-81
2021/07/08 06:49:15;;;;;;;9.20;6.53;;;19.80;80.20;;;;;;5073799;28;20078;-81
2021/07/08 06:51:41;;;;;;;8.68;6.32;;;19.90;79.20;;;;;;5073941;28;20477;-81
2021/07/08 06:54:07;;;;;;;12.25;6.45;;;20.00;78.70;;;;;;5072483;28;20025;-81
2021/07/08 06:56:32;;;;;;;11.20;6.85;;;20.20;78.70;;;;;;5072757;28;20496;-80
2021/07/08 06:58:58;;;;;;;11.13;5.88;;;20.30;78.80;;;;;;5072520;28;20075;-80
2021/07/08 07:01:23;;;;;;;9.73;5.93;;;20.40;78.00;;;;;;5073832;28;20454;-80
2021/07/08 07:03:49;;;;;;;8.35;5.22;;;20.40;78.00;;;;;;5072574;28;20029;-80
2021/07/08 07:06:15;;;;;;;11.02;5.88;;;20.40;78.20;;;;;;5073626;28;20021;-81
2021/07/08 07:08:41;;;;;;;8.98;5.68;;;20.30;77.90;;;;;;5093508;28;20028;-81
2021/07/08 07:11:07;;;;;;;12.82;6.03;;;20.20;78.10;;;;;;5088826;28;20029;-81
2021/07/08 07:13:33;;;;;;;10.75;5.68;;;20.20;78.40;;;;;;5072195;28;20074;-80
2021/07/08 07:15:59;;;;;;;8.70;6.18;;;20.20;78.30;;;;;;5072921;28;20049;-80
2021/07/08 07:18:24;;;;;;;8.43;5.70;;;20.30;78.30;;;;;;5073300;28;20020;-80
2021/07/08 07:20:50;;;;;;;7.55;6.03;;;20.30;78.40;;;;;;5073881;28;20036;-81
2021/07/08 07:23:16;;;;;;;8.32;6.38;;;20.30;78.40;;;;;;5092709;28;20032;-80
2021/07/08 07:25:41;;;;;;;11.32;7.35;;;20.40;78.20;;;;;;5091658;28;20051;-81
2021/07/08 07:28:10;;;;;;;10.43;6.45;;;20.60;77.60;;;;;;5073784;28;20033;-81
2021/07/08 07:30:36;;;;;;;;;;;20.90;76.50;;;;;;5079396;28;20039;-81
2021/07/08 07:33:02;;;;;;;7.82;5.30;;;21.00;75.90;;;;;;5093454;28;19912;-81
2021/07/08 07:35:28;;;;;;;5.40;4.75;;;21.10;75.00;;;;;;5089403;28;20021;-81
2021/07/08 07:37:54;;;;;;;9.50;5.07;;;21.30;74.50;;;;;;5072821;28;20154;-81
2021/07/08 07:40:20;;;;;;;9.43;5.65;;;21.40;73.60;;;;;;5079386;28;20025;-81
2021/07/08 07:42:48;;;;;;;9.65;5.35;;;21.50;73.20;;;;;;5071913;28;20033;-81
2021/07/08 07:45:14;;;;;;;11.60;6.18;;;21.70;73.10;;;;;;5071556;28;20158;-81
2021/07/08 07:47:39;;;;;;;10.52;5.43;;;21.80;72.70;;;;;;5073125;28;20062;-81
2021/07/08 07:50:06;;;;;;;10.38;5.90;;;22.00;72.30;;;;;;5071758;28;20032;-80
2021/07/08 07:52:32;;;;;;;9.77;6.45;;;22.00;71.40;;;;;;5071299;28;20476;-80
2021/07/08 07:54:58;;;;;;;10.38;5.30;;;22.10;70.70;;;;;;5079135;28;20027;-81
2021/07/08 07:57:24;;;;;;;9.18;5.90;;;22.30;70.50;;;;;;5093225;28;20028;-81
2021/07/08 07:59:50;;;;;;;9.30;6.38;;;22.50;69.60;;;;;;5092216;28;20025;-80
2021/07/08 08:02:17;;;;;;;7.45;5.00;;;22.60;69.40;;;;;;5093420;28;20029;-81
2021/07/08 08:05:06;;;;;;;10.48;5.82;;;22.70;69.00;;;;;;5092092;28;20445;-81
2021/07/08 08:10:15;;;;;;;10.45;5.63;;;22.90;67.70;;;;;;5079218;28;20094;-81
2021/07/08 08:12:41;;;;;;;8.18;5.97;;;22.90;67.90;;;;;;5071283;28;20032;-81
2021/07/08 08:15:08;;;;;;;13.40;6.20;;;22.90;68.60;;;;;;5072782;28;20044;-81
2021/07/08 08:17:35;;;;;;;13.07;5.95;;;22.80;68.60;;;;;;5072965;28;20044;-81
2021/07/08 08:20:01;;;;;;;8.93;5.43;;;22.60;68.20;;;;;;5072895;28;20025;-81
2021/07/08 08:22:27;;;;;;;9.73;6.60;;;22.60;68.80;;;;;;5072847;28;20504;-81
2021/07/08 08:24:52;;;;;;;8.73;5.50;;;22.60;68.30;;;;;;5072897;28;20112;-81
2021/07/08 08:27:19;;;;;;;9.50;5.63;;;22.70;68.50;;;;;;5076112;28;20429;-81
2021/07/08 08:29:44;;;;;;;7.88;6.20;;;22.70;68.90;;;;;;5076460;28;20478;-80
2021/07/08 08:32:10;;;;;;;10.07;6.35;;;22.90;69.20;;;;;;5076219;28;20142;-81
2021/07/08 08:34:36;;;;;;;11.10;5.75;;;23.00;68.30;;;;;;5074935;28;20054;-81
2021/07/08 08:37:02;;;;;;;11.70;6.75;;;23.00;67.70;;;;;;5076337;28;20020;-80
2021/07/08 08:39:28;;;;;;;7.32;5.72;;;23.00;68.30;;;;;;5076210;28;20029;-81
2021/07/08 08:41:54;;;;;;;9.43;6.90;;;23.10;68.80;;;;;;5074949;28;20437;-82
2021/07/08 08:44:19;;;;;;;9.15;6.50;;;23.10;68.80;;;;;;5076496;28;20108;-83
2021/07/08 08:46:45;;;;;;;11.13;7.22;;;23.10;68.80;;;;;;5076126;28;20056;-82
2021/07/08 08:49:11;;;;;;;11.70;6.78;;;23.10;68.70;;;;;;5076079;28;20029;-82
2021/07/08 08:51:37;;;;;;;10.50;6.22;;;23.10;68.40;;;;;;5074707;28;20101;-82
2021/07/08 08:54:03;;;;;;;11.00;7.80;;;23.10;68.70;;;;;;5076131;28;20544;-83
2021/07/08 08:56:29;;;;;;;13.07;7.65;;;23.10;69.00;;;;;;5074901;28;20028;-83
2021/07/08 08:58:55;;;;;;;12.55;8.95;;;23.20;69.50;;;;;;5076055;28;20389;-83
2021/07/08 09:01:21;;;;;;;9.82;8.10;;;23.30;69.10;;;;;;5075427;28;20024;-82
2021/07/08 09:03:47;;;;;;;12.27;8.95;;;23.40;68.60;;;;;;5074341;28;20036;-83
2021/07/08 09:06:14;;;;;;;11.93;8.70;;;23.70;67.50;;;;;;5075472;28;20028;-82
2021/07/08 09:08:45;;;;;;;10.93;8.35;;;24.00;66.00;;;;;;5075279;28;20032;-83
2021/07/08 09:11:21;;;;;;;13.25;9.10;;;24.40;65.90;;;;;;5075820;28;20123;-83
2021/07/08 09:14:07;;;;;;;12.00;8.70;;;24.60;64.60;;;;;;5075769;28;20025;-83
2021/07/08 09:16:39;;;;;;;12.77;8.82;;;24.80;64.00;;;;;;5075606;28;20047;-83
2021/07/08 09:19:23;;;;;;;11.15;7.22;;;24.90;63.90;;;;;;5075397;28;20017;-83
2021/07/08 09:21:56;;;;;;;10.80;7.75;;;25.00;63.30;;;;;;5074345;28;20032;-83
2021/07/08 09:24:36;;;;;;;10.85;7.18;;;25.20;63.30;;;;;;5058392;28;20456;-83
2021/07/08 09:27:10;;;;;;;12.52;6.10;;;25.30;62.70;;;;;;5075522;28;20047;-83
2021/07/08 09:29:44;;;;;;;10.90;7.00;;;25.30;62.20;;;;;;5075246;28;20021;-83
2021/07/08 09:32:21;;;;;;;9.25;7.15;;;25.40;62.40;;;;;;5075323;28;20028;-83
2021/07/08 09:34:52;;;;;;;12.80;7.63;;;25.30;62.00;;;;;;5074373;28;20020;-83
2021/07/08 09:37:27;;;;;;;17.98;9.20;;;25.20;63.60;;;;;;5074761;28;20032;-83
2021/07/08 09:40:02;;;;;;;11.20;7.90;;;25.00;62.90;;;;;;5075440;28;20027;-83
2021/07/08 09:42:33;;;;;;;11.57;8.05;;;24.80;64.30;;;;;;5075100;28;20102;-83
2021/07/08 09:45:08;;;;;;;10.25;7.35;;;24.70;64.40;;;;;;5075065;28;20029;-83
2021/07/08 09:47:34;;;;;;;10.52;7.88;;;24.80;63.50;;;;;;5075030;28;20024;-83
2021/07/08 09:50:00;;;;;;;10.90;7.15;;;24.80;63.40;;;;;;5075108;28;20024;-83
2021/07/08 09:52:26;;;;;;;11.45;7.15;;;24.60;63.60;;;;;;5074986;28;20495;-83
2021/07/08 09:57:50;;;;;;;10.75;6.93;;;24.40;64.00;;;;;;5073609;28;20037;-83
2021/07/08 10:00:18;;;;;;;15.13;8.10;;;24.30;64.70;;;;;;5074990;28;20074;-83
2021/07/08 10:02:49;;;;;;;10.57;7.90;;;24.20;65.30;;;;;;5073441;28;20036;-83
2021/07/08 10:05:15;;;;;;;13.77;8.10;;;24.10;65.70;;;;;;5074755;28;20032;-84
2021/07/08 10:07:42;;;;;;;10.15;7.13;;;24.00;65.50;;;;;;5075136;28;20462;-83
2021/07/08 10:10:09;;;;;;;12.18;6.72;;;24.00;65.10;;;;;;5074575;28;20036;-83
2021/07/08 10:12:36;;;;;;;9.30;6.60;;;24.00;65.60;;;;;;5073242;28;20040;-83
2021/07/08 10:15:05;;;;;;;11.07;7.28;;;24.10;65.60;;;;;;5074428;28;20509;-83
2021/07/08 10:17:33;;;;;;;7.88;6.47;;;24.30;64.30;;;;;;5074379;28;20115;-82
2021/07/08 10:20:00;;;;;;;12.05;6.97;;;24.40;64.10;;;;;;5074433;28;20449;-83
2021/07/08 10:22:26;;;;;;;9.68;5.80;;;24.60;64.70;;;;;;5073277;28;20044;-83
2021/07/08 10:24:52;;;;;;;8.68;5.57;;;24.70;63.60;;;;;;5074351;28;20024;-83
2021/07/08 10:27:19;;;;;;;10.07;6.80;;;24.80;63.40;;;;;;5072848;28;20036;-82
2021/07/08 10:29:46;;;;;;;13.00;6.40;;;24.80;63.50;;;;;;5075002;28;20016;-83
2021/07/08 10:32:18;;;;;;;9.52;6.93;;;24.70;62.90;;;;;;5094356;28;20035;-86
2021/07/08 10:34:49;;;;;;;11.18;6.97;;;24.80;62.90;;;;;;5083117;28;20489;-85
2021/07/08 10:37:27;;;;;;;12.18;5.93;;;24.80;63.10;;;;;;5074201;28;20116;-84
2021/07/08 10:39:54;;;;;;;9.45;5.70;;;25.00;63.10;;;;;;5052627;28;20083;-84
2021/07/08 10:42:44;;;;;;;11.85;6.22;;;25.00;62.00;;;;;;5054105;28;20033;-85
2021/07/08 10:45:35;;;;;;;9.15;5.25;;;25.00;61.80;;;;;;5054752;28;20089;-84
2021/07/08 10:48:24;;;;;;;9.80;6.13;;;25.20;62.00;;;;;;5085965;28;20074;-83
2021/07/08 10:50:51;;;;;;;8.70;6.22;;;25.20;61.30;;;;;;5086959;28;20103;-85
2021/07/08 10:53:17;;;;;;;11.00;6.32;;;25.30;61.60;;;;;;5073757;28;20075;-84
2021/07/08 10:55:45;;;;;;;8.77;5.45;;;25.30;60.80;;;;;;5073543;28;20056;-84
2021/07/08 10:58:45;;;;;;;8.85;5.38;;;25.30;61.60;;;;;;5073598;28;20055;-84
2021/07/08 11:01:28;;;;;;;8.90;5.30;;;25.40;61.00;;;;;;5072395;28;20074;-85
2021/07/08 11:03:59;;;;;;;7.28;5.15;;;25.50;61.20;;;;;;5073735;28;20025;-85
2021/07/08 11:06:29;;;;;;;8.90;5.75;;;25.50;60.30;;;;;;5073678;28;20029;-84
2021/07/08 11:09:05;;;;;;;8.90;5.95;;;25.40;60.30;;;;;;5072438;28;20024;-84
2021/07/08 11:11:30;;;;;;;9.43;4.72;;;25.30;59.80;;;;;;5073569;28;20021;-85
2021/07/08 11:14:24;;;;;;;9.90;3.97;;;25.40;60.00;;;;;;5073634;28;20035;-85
2021/07/08 11:16:53;;;;;;;7.68;3.70;;;25.40;59.80;;;;;;5073635;28;20029;-85
2021/07/08 11:19:23;;;;;;;6.50;4.53;;;25.40;58.90;;;;;;5073561;28;20465;-84
2021/07/08 11:21:53;;;;;;;5.75;3.80;;;25.40;58.30;;;;;;5072246;28;20032;-83
2021/07/08 11:24:20;;;;;;;6.25;3.88;;;25.40;58.70;;;;;;5055536;28;20025;-84
2021/07/08 11:26:58;;;;;;;8.80;3.75;;;25.40;58.10;;;;;;5074700;28;20368;-83
2021/07/08 11:29:45;;;;;;;5.38;3.25;;;25.40;57.70;;;;;;5073341;28;20381;-83
2021/07/08 11:32:30;;;;;;;8.00;3.28;;;25.30;58.70;;;;;;5072048;28;20390;-84
2021/07/08 11:35:02;;;;;;;6.03;3.50;;;25.30;57.30;;;;;;5073522;28;20020;-83
2021/07/08 11:37:39;;;;;;;7.50;2.58;;;25.20;57.50;;;;;;5073350;28;20024;-83
2021/07/08 11:40:09;;;;;;;5.35;3.00;;;25.20;58.00;;;;;;5073425;28;20082;-83
2021/07/08 11:42:36;;;;;;;6.57;2.17;;;25.20;58.80;;;;;;5073666;28;20435;-83
2021/07/08 11:45:26;;;;;;;3.88;2.00;;;25.20;57.60;;;;;;5072938;28;20043;-83
2021/07/08 11:47:54;;;;;;;7.35;3.58;;;25.20;55.40;;;;;;5067829;28;20037;-82
2021/07/08 11:50:23;;;;;;;11.73;4.00;;;25.20;56.90;;;;;;5073272;28;20021;-83
2021/07/08 11:53:04;;;;;;;;;;;25.20;58.10;;;;;;5073449;28;20031;-83
2021/07/08 11:55:30;;;;;;;16.55;5.57;;;25.20;58.60;;;;;;5073146;28;19911;-82
2021/07/08 11:58:02;;;;;;;16.80;4.85;;;25.20;57.60;;;;;;5073274;28;20021;-82
2021/07/08 12:00:41;;;;;;;5.90;3.20;;;25.20;57.60;;;;;;5073802;28;20024;-83
2021/07/08 12:03:24;;;;;;;6.53;4.03;;;25.20;57.40;;;;;;5077196;28;20024;-83
2021/07/08 12:05:56;;;;;;;10.82;5.88;;;25.20;58.70;;;;;;5055848;28;20087;-82
2021/07/08 12:08:24;;;;;;;13.63;6.05;;;25.20;58.70;;;;;;5089885;28;20028;-83
2021/07/08 12:11:08;;;;;;;;;;;25.30;59.10;;;;;;5098132;28;20392;-83
2021/07/08 12:13:50;;;;;;;6.63;4.28;;;25.40;58.90;;;;;;5078275;28;19962;-82
2021/07/08 12:16:16;;;;;;;6.90;4.30;;;25.40;58.80;;;;;;5076739;28;20158;-83
2021/07/08 12:18:45;;;;;;;6.15;4.22;;;25.50;57.90;;;;;;5096043;28;20073;-82
2021/07/08 12:21:26;;;;;;;7.03;5.13;;;25.60;58.20;;;;;;5096810;28;20384;-82
2021/07/08 12:23:57;;;;;;;10.73;6.40;;;25.70;58.00;;;;;;5066615;28;20042;-84
2021/07/08 12:26:25;;;;;;;10.65;6.60;;;25.80;57.50;;;;;;5084953;28;20103;-84
2021/07/08 12:29:09;;;;;;;13.60;7.03;;;25.90;57.50;;;;;;5076333;28;20075;-83
2021/07/08 12:31:58;;;;;;;10.48;6.78;;;25.90;57.60;;;;;;5076590;28;20126;-84
2021/07/08 12:34:34;;;;;;;12.10;6.18;;;26.10;57.80;;;;;;5076511;28;20027;-83
2021/07/08 12:37:27;;;;;;;12.48;6.35;;;26.20;57.60;;;;;;5076373;28;20021;-82
2021/07/08 12:39:57;;;;;;;11.50;6.07;;;26.30;58.10;;;;;;5074961;28;20028;-82
2021/07/08 12:42:25;;;;;;;9.90;5.00;;;26.50;56.70;;;;;;5076297;28;20025;-82
2021/07/08 12:44:59;;;;;;;7.10;4.03;;;26.60;55.90;;;;;;5075275;28;20426;-82
2021/07/08 12:47:25;;;;;;;8.45;4.38;;;26.70;55.10;;;;;;5076231;28;20485;-82
2021/07/08 12:49:52;;;;;;;7.28;3.90;;;26.80;54.50;;;;;;5076407;28;20520;-82
2021/07/08 12:52:19;;;;;;;6.22;4.20;;;26.80;54.10;;;;;;5087900;28;20060;-82
2021/07/08 12:54:45;;;;;;;10.23;5.28;;;26.90;54.50;;;;;;5091712;28;20035;-82